createdAt,value
2022-07-27T00:01:08.067Z,79.07
2022-07-27T00:03:36.206Z,78.89
2022-07-27T00:06:04.194Z,79.04
2022-07-27T00:08:32.402Z,78.49
2022-07-27T00:11:00.587Z,78.30
2022-07-27T00:13:30.440Z,78.51
2022-07-27T00:15:58.222Z,78.48
2022-07-27T00:18:26.386Z,78.83
2022-07-27T00:20:54.006Z,78.51
2022-07-27T00:23:21.821Z,78.58
2022-07-27T00:25:49.470Z,78.62
2022-07-27T00:28:17.618Z,78.44
2022-07-27T00:30:46.591Z,78.19
2022-07-27T00:33:16.897Z,77.86
2022-07-27T00:35:45.560Z,78.54
2022-07-27T00:38:13.627Z,78.47
2022-07-27T00:40:41.294Z,78.53
2022-07-27T00:43:09.272Z,78.46
2022-07-27T00:45:36.907Z,78.59
2022-07-27T00:48:06.973Z,78.66
2022-07-27T00:50:34.767Z,78.96
2022-07-27T00:53:04.824Z,79.10
2022-07-27T00:55:33.287Z,79.42
2022-07-27T00:58:01.775Z,79.69
2022-07-27T01:00:30.399Z,80.23
2022-07-27T01:02:58.192Z,81.10
2022-07-27T01:05:30.243Z,81.13
2022-07-27T01:08:05.069Z,81.18
2022-07-27T01:10:33.330Z,81.38
2022-07-27T01:13:01.166Z,81.53
2022-07-27T01:15:29.206Z,81.12
2022-07-27T01:17:56.843Z,81.05
2022-07-27T01:20:24.993Z,81.10
2022-07-27T01:22:53.956Z,81.10
2022-07-27T01:25:22.348Z,81.45
2022-07-27T01:27:49.990Z,81.35
2022-07-27T01:30:31.481Z,80.93
2022-07-27T01:33:03.187Z,80.81
2022-07-27T01:35:31.060Z,80.27
2022-07-27T01:38:01.553Z,79.42
2022-07-27T01:40:29.641Z,78.81
2022-07-27T01:42:57.541Z,77.08
2022-07-27T01:45:25.964Z,76.67
2022-07-27T01:47:53.591Z,76.91
2022-07-27T01:50:22.085Z,76.88
2022-07-27T01:52:49.756Z,78.54
2022-07-27T01:55:19.106Z,78.95
2022-07-27T01:57:46.761Z,79.17
2022-07-27T02:00:15.814Z,79.35
2022-07-27T02:02:43.895Z,79.64
2022-07-27T02:05:12.924Z,80.08
2022-07-27T02:07:41.295Z,80.30
2022-07-27T02:10:11.019Z,80.69
2022-07-27T02:12:39.707Z,81.39
2022-07-27T02:15:15.192Z,81.36
2022-07-27T02:17:44.946Z,81.39
2022-07-27T02:20:15.220Z,81.50
2022-07-27T02:22:43.313Z,81.43
2022-07-27T02:25:12.919Z,81.49
2022-07-27T02:27:43.284Z,81.39
2022-07-27T02:30:13.184Z,81.27
2022-07-27T02:32:44.285Z,81.18
2022-07-27T02:35:19.365Z,81.06
2022-07-27T02:37:47.881Z,80.87
2022-07-27T02:40:18.171Z,81.05
2022-07-27T02:42:48.173Z,81.85
2022-07-27T02:45:17.375Z,82.58
2022-07-27T02:47:45.803Z,82.68
2022-07-27T02:50:14.507Z,82.26
2022-07-27T02:52:42.181Z,81.63
2022-07-27T02:55:11.202Z,81.53
2022-07-27T02:57:41.111Z,80.97
2022-07-27T03:00:13.925Z,80.35
2022-07-27T03:02:41.961Z,79.29
2022-07-27T03:05:12.053Z,78.39
2022-07-27T03:07:39.798Z,77.85
2022-07-27T03:10:08.667Z,77.18
2022-07-27T03:12:36.332Z,76.58
2022-07-27T03:15:04.259Z,75.99
2022-07-27T03:17:33.843Z,75.31
2022-07-27T03:20:02.303Z,74.60
2022-07-27T03:22:32.480Z,74.20
2022-07-27T03:25:01.676Z,74.41
2022-07-27T03:27:29.720Z,74.12
2022-07-27T03:29:57.616Z,74.34
2022-07-27T03:32:25.994Z,74.81
2022-07-27T03:34:55.021Z,75.31
2022-07-27T03:37:23.149Z,74.68
2022-07-27T03:39:50.839Z,74.40
2022-07-27T03:42:18.971Z,74.30
2022-07-27T03:44:46.605Z,74.11
2022-07-27T03:47:14.300Z,73.76
2022-07-27T03:49:42.235Z,73.26
2022-07-27T03:52:15.800Z,72.65
2022-07-27T03:54:45.418Z,73.07
2022-07-27T03:57:13.439Z,73.59
2022-07-27T03:59:41.116Z,73.26
2022-07-27T04:02:09.281Z,73.00
2022-07-27T04:04:36.946Z,73.57
2022-07-27T04:07:04.961Z,74.50
2022-07-27T04:09:34.353Z,75.06
2022-07-27T04:12:02.339Z,75.98
2022-07-27T04:14:30.385Z,76.33
2022-07-27T04:16:58.815Z,76.53
2022-07-27T04:19:26.478Z,76.28
2022-07-27T04:21:54.592Z,76.18
2022-07-27T04:24:22.260Z,76.12
2022-07-27T04:26:52.322Z,76.23
2022-07-27T04:29:21.059Z,76.83
2022-07-27T04:31:49.459Z,77.34
2022-07-27T04:34:17.143Z,77.92
2022-07-27T04:36:45.144Z,78.30
2022-07-27T04:39:13.159Z,78.39
2022-07-27T04:41:41.458Z,78.69
2022-07-27T04:44:10.447Z,79.50
2022-07-27T04:46:38.546Z,79.84
2022-07-27T04:49:06.346Z,80.26
2022-07-27T04:51:35.358Z,79.73
2022-07-27T04:54:03.137Z,79.12
2022-07-27T04:56:31.072Z,79.00
2022-07-27T04:58:58.814Z,78.95
2022-07-27T05:01:34.692Z,79.72
2022-07-27T05:04:04.041Z,79.42
2022-07-27T05:06:33.013Z,79.33
2022-07-27T05:09:00.934Z,78.86
2022-07-27T05:11:28.659Z,78.42
2022-07-27T05:13:56.292Z,77.15
2022-07-27T05:16:28.486Z,75.82
2022-07-27T05:18:58.330Z,76.77
2022-07-27T05:21:27.488Z,77.84
2022-07-27T05:23:55.599Z,77.87
2022-07-27T05:26:23.742Z,78.36
2022-07-27T05:28:51.387Z,77.63
2022-07-27T05:31:19.628Z,77.12
2022-07-27T05:33:49.795Z,75.60
2022-07-27T05:36:20.851Z,75.40
2022-07-27T05:38:48.485Z,75.33
2022-07-27T05:41:16.654Z,75.54
2022-07-27T05:43:44.627Z,75.36
2022-07-27T05:46:12.446Z,74.99
2022-07-27T05:48:40.346Z,74.42
2022-07-27T05:51:08.383Z,73.54
2022-07-27T05:53:37.447Z,73.05
2022-07-27T05:56:05.525Z,72.58
2022-07-27T05:58:33.167Z,73.13
2022-07-27T06:01:01.377Z,72.94
2022-07-27T06:03:29.898Z,72.20
2022-07-27T06:06:11.587Z,71.61
2022-07-27T06:08:40.730Z,69.97
2022-07-27T06:11:08.373Z,68.02
2022-07-27T06:13:37.437Z,66.73
2022-07-27T06:16:10.122Z,64.56
2022-07-27T06:18:38.115Z,65.10
2022-07-27T06:21:06.361Z,64.51
2022-07-27T06:23:34.114Z,65.72
2022-07-27T06:26:03.080Z,66.16
2022-07-27T06:28:30.715Z,66.53
2022-07-27T06:30:58.391Z,66.59
2022-07-27T06:33:29.511Z,64.76
2022-07-27T06:35:58.382Z,63.53
2022-07-27T06:38:26.991Z,63.56
2022-07-27T06:40:55.234Z,64.85
2022-07-27T06:43:26.736Z,64.72
2022-07-27T06:45:55.315Z,65.19
2022-07-27T06:48:23.455Z,64.17
2022-07-27T06:50:52.158Z,63.82
2022-07-27T06:53:21.542Z,63.05
2022-07-27T06:55:49.521Z,59.86
2022-07-27T06:58:18.060Z,61.29
2022-07-27T07:00:47.471Z,61.24
2022-07-27T07:03:15.258Z,60.19
2022-07-27T07:05:45.392Z,59.52
2022-07-27T07:08:14.960Z,59.12
2022-07-27T07:10:46.357Z,58.23
2022-07-27T07:13:14.901Z,57.82
2022-07-27T07:15:44.007Z,58.42
2022-07-27T07:18:13.698Z,57.54
2022-07-27T07:20:41.941Z,58.45
2022-07-27T07:23:11.598Z,57.84
2022-07-27T07:25:40.756Z,58.18
2022-07-27T07:28:09.511Z,57.52
2022-07-27T07:30:37.450Z,55.81
2022-07-27T07:33:05.911Z,55.17
2022-07-27T07:35:35.027Z,54.63
2022-07-27T07:38:03.287Z,54.09
2022-07-27T07:40:46.483Z,53.75
2022-07-27T07:43:15.513Z,53.16
2022-07-27T07:45:49.477Z,52.91
2022-07-27T07:48:21.015Z,53.52
2022-07-27T07:50:52.024Z,53.38
2022-07-27T07:53:21.847Z,52.61
2022-07-27T07:55:49.661Z,51.37
2022-07-27T07:58:18.071Z,52.63
2022-07-27T08:00:46.516Z,51.11
2022-07-27T08:03:14.333Z,51.28
2022-07-27T08:05:42.305Z,52.30
2022-07-27T08:08:11.652Z,53.05
2022-07-27T08:10:39.699Z,50.13
2022-07-27T08:13:07.425Z,50.64
2022-07-27T08:15:36.625Z,51.13
2022-07-27T08:18:05.490Z,50.40
2022-07-27T08:20:33.933Z,49.68
2022-07-27T08:23:01.774Z,49.41
2022-07-27T08:25:31.488Z,47.30
2022-07-27T08:27:59.275Z,46.87
2022-07-27T08:30:28.515Z,47.38
2022-07-27T08:33:00.991Z,46.32
2022-07-27T08:35:30.790Z,47.12
2022-07-27T08:37:59.476Z,46.95
2022-07-27T08:40:45.343Z,46.76
2022-07-27T08:43:24.497Z,46.95
2022-07-27T08:45:56.183Z,47.00
2022-07-27T08:48:25.159Z,45.60
2022-07-27T08:50:53.017Z,46.30
2022-07-27T08:53:20.779Z,45.91
2022-07-27T08:55:49.209Z,44.86
2022-07-27T08:58:18.431Z,44.10
2022-07-27T09:00:50.374Z,44.49
2022-07-27T09:03:21.465Z,44.12
2022-07-27T09:05:50.996Z,43.64
2022-07-27T09:08:22.410Z,43.96
2022-07-27T09:10:52.163Z,44.01
2022-07-27T09:13:24.542Z,43.39
2022-07-27T09:18:42.860Z,45.46
2022-07-27T09:21:16.902Z,44.73
2022-07-27T09:23:48.174Z,43.60
2022-07-27T09:26:31.097Z,42.41
2022-07-27T09:29:03.331Z,43.14
2022-07-27T09:31:32.257Z,42.00
2022-07-27T09:34:02.811Z,41.85
2022-07-27T09:36:31.956Z,43.57
2022-07-27T09:39:03.824Z,42.71
2022-07-27T09:41:43.459Z,42.79
2022-07-27T09:47:02.070Z,43.21
2022-07-27T09:49:31.891Z,44.46
2022-07-27T09:52:02.486Z,46.02
2022-07-27T09:54:44.135Z,43.56
2022-07-27T09:57:12.100Z,44.48
2022-07-27T09:59:41.232Z,43.42
2022-07-27T10:02:09.075Z,44.17
2022-07-27T10:04:36.928Z,45.14
2022-07-27T10:07:08.353Z,43.56
2022-07-27T10:09:40.639Z,43.95
2022-07-27T10:12:09.608Z,45.40
2022-07-27T10:14:37.331Z,43.89
2022-07-27T10:17:07.583Z,46.19
2022-07-27T10:19:42.348Z,45.25
2022-07-27T10:22:10.278Z,45.24
2022-07-27T10:24:37.918Z,42.99
2022-07-27T10:27:22.934Z,43.37
2022-07-27T10:29:51.801Z,43.13
2022-07-27T10:32:31.490Z,43.39
2022-07-27T10:34:59.818Z,45.24
2022-07-27T10:37:29.057Z,43.93
2022-07-27T10:40:12.571Z,44.85
2022-07-27T10:42:41.153Z,42.87
2022-07-27T10:45:11.045Z,42.73
2022-07-27T10:47:45.128Z,43.35
2022-07-27T10:50:33.757Z,41.73
2022-07-27T10:53:04.797Z,39.92
2022-07-27T10:55:51.540Z,40.35
2022-07-27T10:58:45.551Z,40.09
2022-07-27T11:01:15.517Z,41.21
2022-07-27T11:03:53.582Z,42.90
2022-07-27T11:06:55.782Z,40.32
2022-07-27T11:12:05.575Z,41.69
2022-07-27T11:14:44.769Z,41.84
2022-07-27T11:20:04.576Z,42.08
2022-07-27T11:23:08.834Z,41.55
2022-07-27T11:25:21.734Z,42.46
2022-07-27T11:27:50.497Z,42.55
2022-07-27T11:30:25.652Z,41.49
2022-07-27T11:32:53.581Z,40.70
2022-07-27T11:35:22.863Z,41.10
2022-07-27T11:38:05.142Z,41.81
2022-07-27T11:43:34.643Z,42.04
2022-07-27T11:46:20.453Z,43.49
2022-07-27T11:49:06.140Z,43.68
2022-07-27T11:51:38.136Z,43.54
2022-07-27T11:54:08.628Z,44.15
2022-07-27T11:56:39.525Z,41.71
2022-07-27T11:59:13.523Z,42.94
2022-07-27T12:01:44.421Z,44.39
2022-07-27T12:04:16.078Z,43.78
2022-07-27T12:06:47.566Z,41.98
2022-07-27T12:09:18.161Z,41.15
2022-07-27T12:11:50.105Z,41.37
2022-07-27T12:14:19.178Z,40.77
2022-07-27T12:16:47.008Z,42.23
2022-07-27T12:19:23.219Z,41.61
2022-07-27T12:21:55.495Z,42.99
2022-07-27T12:24:33.900Z,40.81
2022-07-27T12:27:06.563Z,43.73
2022-07-27T12:29:35.071Z,42.42
2022-07-27T12:32:05.076Z,41.62
2022-07-27T12:34:34.102Z,40.03
2022-07-27T12:37:12.338Z,42.27
2022-07-27T12:39:43.045Z,41.40
2022-07-27T12:42:11.789Z,40.20
2022-07-27T12:44:42.367Z,40.30
2022-07-27T12:47:28.312Z,40.37
2022-07-27T12:50:08.279Z,43.27
2022-07-27T12:52:41.899Z,40.67
2022-07-27T12:55:15.155Z,41.35
2022-07-27T12:57:58.999Z,42.34
2022-07-27T13:00:33.730Z,42.39
2022-07-27T13:03:04.181Z,42.04
2022-07-27T13:05:32.848Z,42.65
2022-07-27T13:08:03.277Z,44.65
2022-07-27T13:10:31.404Z,44.53
2022-07-27T13:12:59.487Z,43.86
2022-07-27T13:15:27.343Z,42.63
2022-07-27T13:17:55.026Z,41.37
2022-07-27T13:20:22.781Z,41.81
2022-07-27T13:22:50.811Z,41.47
2022-07-27T13:25:20.386Z,41.32
2022-07-27T13:27:49.978Z,43.86
2022-07-27T13:30:19.346Z,43.68
2022-07-27T13:32:48.309Z,42.21
2022-07-27T13:35:17.454Z,43.20
2022-07-27T13:37:45.898Z,40.57
2022-07-27T13:40:14.596Z,41.82
2022-07-27T13:42:44.015Z,43.09
2022-07-27T13:45:12.487Z,42.81
2022-07-27T13:47:41.548Z,42.58
2022-07-27T13:50:17.893Z,42.54
2022-07-27T13:52:47.922Z,43.56
2022-07-27T13:55:16.149Z,42.70
2022-07-27T13:57:47.058Z,44.21
2022-07-27T14:00:16.051Z,43.77
2022-07-27T14:02:44.173Z,43.29
2022-07-27T14:05:14.184Z,43.09
2022-07-27T14:07:42.574Z,44.62
2022-07-27T14:10:30.321Z,44.96
2022-07-27T14:13:08.044Z,43.37
2022-07-27T14:15:55.664Z,42.13
2022-07-27T14:18:26.336Z,42.28
2022-07-27T14:20:54.368Z,42.08
2022-07-27T14:23:22.447Z,41.73
2022-07-27T14:25:50.303Z,41.86
2022-07-27T14:28:19.850Z,43.39
2022-07-27T14:30:48.630Z,41.92
2022-07-27T14:33:17.486Z,42.11
2022-07-27T14:35:45.937Z,41.89
2022-07-27T14:38:14.089Z,43.57
2022-07-27T14:40:54.338Z,44.43
2022-07-27T14:43:23.957Z,44.69
2022-07-27T14:45:52.268Z,43.68
2022-07-27T14:48:32.439Z,43.60
2022-07-27T14:51:09.697Z,44.88
2022-07-27T14:53:37.456Z,44.60
2022-07-27T14:56:05.593Z,45.74
2022-07-27T14:58:34.570Z,44.62
2022-07-27T15:01:02.379Z,43.26
2022-07-27T15:03:30.016Z,43.92
2022-07-27T15:05:58.596Z,43.25
2022-07-27T15:08:26.261Z,44.48
2022-07-27T15:10:54.185Z,44.38
2022-07-27T15:13:21.827Z,42.70
2022-07-27T15:15:52.749Z,41.96
2022-07-27T15:18:21.010Z,44.06
2022-07-27T15:20:49.705Z,43.69
2022-07-27T15:23:17.975Z,44.34
2022-07-27T15:25:45.910Z,42.89
2022-07-27T15:28:15.442Z,43.09
2022-07-27T15:30:43.452Z,43.96
2022-07-27T15:33:12.778Z,46.52
2022-07-27T15:35:40.446Z,44.83
2022-07-27T15:38:08.073Z,43.84
2022-07-27T15:40:39.186Z,44.95
2022-07-27T15:43:08.375Z,45.97
2022-07-27T15:45:39.000Z,45.07
2022-07-27T15:48:08.327Z,44.35
2022-07-27T15:50:38.273Z,43.25
2022-07-27T15:53:07.138Z,44.14
2022-07-27T15:55:37.884Z,45.02
2022-07-27T15:58:06.100Z,45.20
2022-07-27T16:00:39.529Z,44.10
2022-07-27T16:03:08.525Z,44.71
2022-07-27T16:05:37.938Z,44.69
2022-07-27T16:08:07.535Z,43.71
2022-07-27T16:10:35.185Z,44.48
2022-07-27T16:13:03.003Z,44.56
2022-07-27T16:15:45.058Z,44.50
2022-07-27T16:18:12.861Z,45.20
2022-07-27T16:20:42.197Z,44.40
2022-07-27T16:23:19.133Z,44.35
2022-07-27T16:26:08.156Z,44.19
2022-07-27T16:28:39.662Z,43.22
2022-07-27T16:31:08.289Z,43.76
2022-07-27T16:33:36.080Z,44.71
2022-07-27T16:36:08.401Z,45.07
2022-07-27T16:38:36.995Z,45.44
2022-07-27T16:41:07.499Z,45.94
2022-07-27T16:43:38.117Z,44.00
2022-07-27T16:46:07.537Z,42.79
2022-07-27T16:48:42.655Z,42.81
2022-07-27T16:51:14.091Z,44.15
2022-07-27T16:53:43.478Z,44.06
2022-07-27T16:56:12.393Z,44.58
2022-07-27T16:58:40.336Z,45.50
2022-07-27T17:01:08.549Z,46.18
2022-07-27T17:03:36.433Z,46.32
2022-07-27T17:06:06.454Z,45.96
2022-07-27T17:08:36.606Z,46.54
2022-07-27T17:11:05.461Z,46.96
2022-07-27T17:13:34.837Z,46.86
2022-07-27T17:16:02.910Z,47.27
2022-07-27T17:18:34.215Z,46.46
2022-07-27T17:21:07.119Z,47.34
2022-07-27T17:23:38.247Z,47.59
2022-07-27T17:26:07.379Z,48.13
2022-07-27T17:28:38.745Z,48.08
2022-07-27T17:31:07.799Z,49.30
2022-07-27T17:33:35.469Z,49.39
2022-07-27T17:36:03.361Z,49.18
2022-07-27T17:38:31.115Z,48.69
2022-07-27T17:41:00.347Z,49.53
2022-07-27T17:43:28.293Z,49.21
2022-07-27T17:45:55.930Z,48.73
2022-07-27T17:48:24.257Z,48.76
2022-07-27T17:50:51.918Z,48.39
2022-07-27T17:53:19.542Z,46.97
2022-07-27T17:55:47.160Z,47.37
2022-07-27T17:58:17.064Z,47.69
2022-07-27T18:00:44.710Z,47.48
2022-07-27T18:03:13.138Z,48.03
2022-07-27T18:05:41.047Z,48.70
2022-07-27T18:08:10.274Z,48.69
2022-07-27T18:10:38.858Z,48.99
2022-07-27T18:13:07.323Z,49.39
2022-07-27T18:15:49.035Z,49.95
2022-07-27T18:18:18.769Z,50.20
2022-07-27T18:20:48.210Z,50.17
2022-07-27T18:23:16.376Z,50.12
2022-07-27T18:25:45.389Z,50.53
2022-07-27T18:28:14.307Z,50.83
2022-07-27T18:30:43.549Z,51.27
2022-07-27T18:33:11.552Z,51.40
2022-07-27T18:35:39.513Z,51.75
2022-07-27T18:38:09.101Z,52.42
2022-07-27T18:40:37.352Z,52.43
2022-07-27T18:43:05.791Z,52.91
2022-07-27T18:45:34.174Z,52.80
2022-07-27T18:48:05.068Z,53.02
2022-07-27T18:50:38.706Z,52.68
2022-07-27T18:53:07.115Z,52.37
2022-07-27T18:55:34.828Z,52.67
2022-07-27T18:58:02.911Z,52.86
2022-07-27T19:00:31.068Z,53.22
2022-07-27T19:02:59.112Z,53.99
2022-07-27T19:05:40.531Z,55.23
2022-07-27T19:08:11.488Z,55.74
2022-07-27T19:10:41.484Z,56.45
2022-07-27T19:13:10.347Z,56.39
2022-07-27T19:15:38.224Z,56.36
2022-07-27T19:18:06.283Z,55.99
2022-07-27T19:20:36.319Z,56.45
2022-07-27T19:23:04.111Z,56.96
2022-07-27T19:25:33.594Z,58.01
2022-07-27T19:28:02.227Z,58.69
2022-07-27T19:30:30.065Z,59.19
2022-07-27T19:32:58.803Z,59.37
2022-07-27T19:35:26.767Z,59.56
2022-07-27T19:37:56.233Z,59.96
2022-07-27T19:43:11.944Z,60.14
2022-07-27T19:45:39.604Z,60.67
2022-07-27T19:48:08.592Z,60.71
2022-07-27T19:50:36.336Z,60.56
2022-07-27T19:53:06.154Z,60.77
2022-07-27T19:55:34.040Z,60.51
2022-07-27T19:58:02.082Z,60.72
2022-07-27T20:00:30.745Z,60.04
2022-07-27T20:02:59.085Z,59.28
2022-07-27T20:05:26.767Z,59.07
2022-07-27T20:07:54.371Z,58.96
2022-07-27T20:10:25.174Z,58.58
2022-07-27T20:12:53.508Z,58.06
2022-07-27T20:15:22.588Z,58.31
2022-07-27T20:17:50.619Z,58.06
2022-07-27T20:20:18.280Z,57.72
2022-07-27T20:22:46.010Z,58.26
2022-07-27T20:25:15.102Z,58.11
2022-07-27T20:27:44.159Z,57.69
2022-07-27T20:30:16.149Z,58.01
2022-07-27T20:32:43.813Z,57.96
2022-07-27T20:35:11.793Z,58.02
2022-07-27T20:37:39.451Z,57.92
2022-07-27T20:40:11.309Z,57.85
2022-07-27T20:42:40.243Z,58.30
2022-07-27T20:45:13.759Z,58.24
2022-07-27T20:47:41.867Z,58.05
2022-07-27T20:50:13.112Z,58.24
2022-07-27T20:52:41.998Z,58.15
2022-07-27T20:55:11.174Z,58.66
2022-07-27T20:57:39.017Z,58.74
2022-07-27T21:00:08.417Z,59.39
2022-07-27T21:02:37.821Z,59.14
2022-07-27T21:05:06.589Z,59.72
2022-07-27T21:07:34.282Z,59.42
2022-07-27T21:10:01.933Z,59.96
2022-07-27T21:12:29.569Z,60.03
2022-07-27T21:14:57.228Z,60.57
2022-07-27T21:17:24.899Z,60.35
2022-07-27T21:19:54.663Z,60.46
2022-07-27T21:22:22.282Z,60.52
2022-07-27T21:24:50.424Z,61.20
2022-07-27T21:27:21.061Z,61.49
2022-07-27T21:29:49.428Z,61.92
2022-07-27T21:32:17.248Z,62.05
2022-07-27T21:34:44.924Z,62.27
2022-07-27T21:37:13.959Z,62.23
2022-07-27T21:39:41.899Z,62.84
2022-07-27T21:42:09.530Z,63.14
2022-07-27T21:44:37.428Z,63.20
2022-07-27T21:47:11.451Z,63.25
2022-07-27T21:49:42.191Z,63.70
2022-07-27T21:52:11.044Z,63.49
2022-07-27T21:54:40.490Z,63.88
2022-07-27T21:57:08.248Z,64.15
2022-07-27T21:59:35.904Z,64.84
2022-07-27T22:02:03.530Z,64.84
2022-07-27T22:04:31.782Z,64.98
2022-07-27T22:06:59.478Z,65.71
2022-07-27T22:09:27.141Z,66.01
2022-07-27T22:11:56.776Z,65.78
2022-07-27T22:14:24.468Z,66.14
2022-07-27T22:16:53.694Z,66.57
2022-07-27T22:19:21.422Z,66.59
2022-07-27T22:21:49.500Z,66.52
2022-07-27T22:24:17.657Z,66.64
2022-07-27T22:26:46.205Z,66.72
2022-07-27T22:29:15.853Z,66.76
2022-07-27T22:31:43.997Z,67.18
2022-07-27T22:34:11.952Z,67.41
2022-07-27T22:36:40.199Z,67.89
2022-07-27T22:39:07.880Z,67.80
2022-07-27T22:41:35.536Z,68.16
2022-07-27T22:44:03.209Z,68.50
2022-07-27T22:46:32.577Z,68.81
2022-07-27T22:49:00.259Z,69.08
2022-07-27T22:51:49.800Z,69.44
2022-07-27T22:54:16.987Z,69.64
2022-07-27T22:56:45.758Z,69.75
2022-07-27T22:59:13.422Z,69.82
2022-07-27T23:01:47.376Z,69.81
2022-07-27T23:04:16.644Z,70.09
2022-07-27T23:06:45.424Z,70.49
2022-07-27T23:09:13.316Z,70.68
2022-07-27T23:11:41.283Z,71.01
2022-07-27T23:14:08.972Z,71.29
2022-07-27T23:16:37.534Z,71.46
2022-07-27T23:19:07.804Z,71.96
2022-07-27T23:21:37.445Z,71.87
2022-07-27T23:24:05.483Z,72.16
2022-07-27T23:26:33.563Z,72.21
2022-07-27T23:29:01.655Z,72.05
2022-07-27T23:31:29.799Z,72.05
2022-07-27T23:33:57.528Z,72.43
2022-07-27T23:36:26.944Z,73.18
2022-07-27T23:38:54.665Z,73.02
2022-07-27T23:41:23.151Z,72.90
2022-07-27T23:43:50.809Z,72.73
2022-07-27T23:46:19.416Z,73.38
2022-07-27T23:48:47.187Z,73.88
2022-07-27T23:51:19.045Z,74.09
2022-07-27T23:53:48.492Z,74.31
2022-07-27T23:56:16.678Z,74.46
2022-07-27T23:58:44.888Z,74.58
